createdAt,value
2019-04-03T00:00:14.026Z,21.10
2019-04-03T00:02:42.474Z,21.00
2019-04-03T00:05:10.970Z,21.68
2019-04-03T00:07:39.658Z,20.57
2019-04-03T00:10:08.532Z,20.48
2019-04-03T00:12:37.360Z,21.70
2019-04-03T00:15:06.361Z,23.25
2019-04-03T00:17:34.828Z,25.32
2019-04-03T00:20:04.818Z,24.15
2019-04-03T00:22:33.395Z,23.92
2019-04-03T00:25:02.328Z,24.65
2019-04-03T00:27:30.767Z,24.67
2019-04-03T00:30:01.212Z,26.27
2019-04-03T00:32:29.615Z,26.87
2019-04-03T00:34:58.492Z,27.13
2019-04-03T00:37:26.905Z,27.70
2019-04-03T00:39:55.361Z,27.20
2019-04-03T00:42:24.558Z,27.90
2019-04-03T00:44:54.708Z,29.87
2019-04-03T00:47:25.084Z,30.97
2019-04-03T00:49:53.405Z,29.67
2019-04-03T00:52:22.210Z,29.60
2019-04-03T00:54:50.762Z,31.17
2019-04-03T00:57:19.190Z,32.23
2019-04-03T00:59:47.634Z,31.90
2019-04-03T01:02:18.898Z,33.30
2019-04-03T01:04:48.379Z,33.08
2019-04-03T01:07:17.310Z,32.08
2019-04-03T01:09:45.760Z,33.40
2019-04-03T01:12:14.158Z,31.25
2019-04-03T01:14:42.693Z,33.08
2019-04-03T01:17:11.147Z,33.60
2019-04-03T01:19:39.556Z,35.73
2019-04-03T01:22:08.277Z,30.65
2019-04-03T01:24:38.819Z,26.65
2019-04-03T01:27:07.762Z,24.72
2019-04-03T01:29:36.514Z,25.45
2019-04-03T01:32:04.921Z,23.92
2019-04-03T01:34:33.367Z,25.45
2019-04-03T01:37:03.849Z,25.50
2019-04-03T01:39:32.281Z,24.72
2019-04-03T01:42:00.674Z,24.52
2019-04-03T01:44:29.099Z,25.12
2019-04-03T01:46:58.288Z,23.92
2019-04-03T01:49:29.628Z,24.52
2019-04-03T01:51:58.965Z,25.92
2019-04-03T01:54:28.451Z,25.57
2019-04-03T01:56:56.999Z,25.10
2019-04-03T01:59:25.414Z,25.43
2019-04-03T02:01:53.997Z,26.07
2019-04-03T02:04:22.433Z,26.27
2019-04-03T02:06:50.881Z,26.73
2019-04-03T02:09:19.740Z,26.62
2019-04-03T02:11:49.838Z,25.65
2019-04-03T02:14:21.056Z,27.37
2019-04-03T02:16:48.451Z,25.92
2019-04-03T02:19:17.102Z,26.40
2019-04-03T02:21:45.973Z,28.00
2019-04-03T02:24:14.608Z,28.38
2019-04-03T02:26:43.346Z,29.55
2019-04-03T02:29:11.783Z,27.10
2019-04-03T02:31:40.228Z,29.48
2019-04-03T02:34:08.802Z,29.75
2019-04-03T02:36:37.197Z,29.75
2019-04-03T02:39:06.014Z,28.87
2019-04-03T02:41:36.967Z,28.85
2019-04-03T02:44:05.527Z,29.95
2019-04-03T02:46:33.997Z,30.65
2019-04-03T02:49:02.477Z,29.30
2019-04-03T02:51:30.919Z,30.77
2019-04-03T02:54:02.002Z,30.88
2019-04-03T02:56:29.451Z,30.37
2019-04-03T02:58:57.868Z,32.63
2019-04-03T03:01:26.352Z,32.65
2019-04-03T03:03:56.441Z,32.20
2019-04-03T03:06:25.187Z,32.08
2019-04-03T03:08:54.258Z,30.97
2019-04-03T03:11:24.472Z,30.88
2019-04-03T03:13:53.313Z,31.80
2019-04-03T03:16:21.774Z,31.20
2019-04-03T03:18:50.496Z,33.10
2019-04-03T03:21:19.593Z,32.08
2019-04-03T03:23:48.288Z,34.00
2019-04-03T03:26:17.581Z,33.33
2019-04-03T03:28:47.470Z,31.62
2019-04-03T03:31:17.886Z,31.77
2019-04-03T03:33:47.392Z,32.90
2019-04-03T03:36:21.753Z,30.17
2019-04-03T03:38:46.398Z,30.20
2019-04-03T03:41:14.812Z,30.97
2019-04-03T03:43:43.992Z,30.40
2019-04-03T03:46:12.664Z,29.32
2019-04-03T03:48:43.929Z,27.90
2019-04-03T03:51:11.428Z,29.00
2019-04-03T03:53:43.942Z,27.62
2019-04-03T03:56:10.604Z,28.80
2019-04-03T03:58:39.046Z,27.90
2019-04-03T04:01:07.759Z,27.50
2019-04-03T04:03:36.182Z,26.02
2019-04-03T04:06:04.771Z,27.35
2019-04-03T04:08:33.353Z,25.62
2019-04-03T04:11:02.296Z,27.60
2019-04-03T04:13:30.856Z,25.65
2019-04-03T04:16:02.730Z,24.20
2019-04-03T04:18:29.653Z,25.43
2019-04-03T04:20:58.848Z,23.15
2019-04-03T04:23:27.312Z,23.27
2019-04-03T04:25:55.951Z,22.73
2019-04-03T04:28:24.643Z,21.33
2019-04-03T04:30:53.095Z,19.85
2019-04-03T04:33:23.001Z,22.37
2019-04-03T04:35:52.173Z,20.02
2019-04-03T04:38:21.717Z,20.55
2019-04-03T04:40:51.573Z,21.80
2019-04-03T04:43:19.970Z,19.67
2019-04-03T04:45:48.761Z,19.87
2019-04-03T04:48:21.305Z,20.45
2019-04-03T04:50:49.931Z,18.37
2019-04-03T04:53:19.590Z,18.92
2019-04-03T04:55:48.565Z,16.27
2019-04-03T04:58:17.029Z,16.12
2019-04-03T05:00:47.537Z,17.05
2019-04-03T05:03:16.678Z,16.02
2019-04-03T05:05:45.122Z,16.07
2019-04-03T05:08:13.899Z,16.27
2019-04-03T05:10:42.351Z,15.32
2019-04-03T05:13:11.041Z,15.30
2019-04-03T05:15:39.907Z,16.40
2019-04-03T05:18:08.831Z,16.17
2019-04-03T05:20:37.337Z,15.43
2019-04-03T05:23:06.026Z,15.25
2019-04-03T05:25:35.004Z,16.27
2019-04-03T05:28:04.522Z,17.02
2019-04-03T05:30:36.325Z,16.12
2019-04-03T05:33:03.942Z,15.55
2019-04-03T05:35:32.313Z,15.60
2019-04-03T05:38:01.151Z,16.00
2019-04-03T05:40:29.999Z,15.43
2019-04-03T05:43:00.184Z,15.83
2019-04-03T05:45:29.187Z,15.95
2019-04-03T05:48:04.248Z,15.55
2019-04-03T05:50:35.826Z,15.98
2019-04-03T05:53:05.643Z,16.15
2019-04-03T05:55:33.695Z,17.05
2019-04-03T05:58:02.613Z,16.45
2019-04-03T06:00:31.147Z,16.07
2019-04-03T06:02:59.714Z,17.42
2019-04-03T06:05:28.242Z,17.15
2019-04-03T06:07:56.971Z,17.98
2019-04-03T06:10:32.394Z,17.90
2019-04-03T06:13:01.170Z,17.25
2019-04-03T06:15:29.607Z,16.50
2019-04-03T06:17:58.058Z,18.35
2019-04-03T06:20:26.558Z,18.45
2019-04-03T06:22:55.272Z,17.57
2019-04-03T06:25:24.134Z,17.80
2019-04-03T06:27:53.024Z,16.62
2019-04-03T06:30:24.313Z,16.60
2019-04-03T06:32:54.379Z,15.93
2019-04-03T06:35:21.944Z,15.63
2019-04-03T06:37:51.394Z,13.83
2019-04-03T06:40:21.731Z,14.55
2019-04-03T06:42:50.154Z,15.53
2019-04-03T06:45:18.615Z,14.53
2019-04-03T06:47:47.079Z,14.93
2019-04-03T06:50:17.405Z,14.90
2019-04-03T06:52:45.577Z,15.53
2019-04-03T06:55:14.026Z,15.05
2019-04-03T06:57:42.439Z,15.35
2019-04-03T07:00:10.871Z,15.90
2019-04-03T07:02:39.784Z,16.67
2019-04-03T07:05:10.303Z,16.75
2019-04-03T07:07:38.404Z,16.60
2019-04-03T07:10:08.934Z,16.50
2019-04-03T07:12:37.051Z,15.45
2019-04-03T07:15:06.728Z,16.77
2019-04-03T07:17:35.332Z,17.75
2019-04-03T07:20:13.703Z,16.75
2019-04-03T07:22:34.694Z,17.05
2019-04-03T07:25:05.906Z,16.82
2019-04-03T07:27:36.581Z,16.55
2019-04-03T07:30:06.029Z,15.98
2019-04-03T07:32:34.806Z,15.05
2019-04-03T07:35:08.884Z,15.15
2019-04-03T07:37:33.761Z,14.13
2019-04-03T07:40:02.610Z,15.53
2019-04-03T07:42:31.567Z,14.58
2019-04-03T07:45:02.175Z,15.45
2019-04-03T07:47:34.344Z,14.68
2019-04-03T07:50:02.892Z,19.23
2019-04-03T07:52:31.564Z,16.75
2019-04-03T07:54:59.994Z,18.12
2019-04-03T07:57:29.233Z,16.70
2019-04-03T07:59:58.203Z,17.27
2019-04-03T08:02:29.125Z,18.45
2019-04-03T08:05:00.290Z,16.85
2019-04-03T08:07:28.518Z,18.95
2019-04-03T08:09:58.639Z,18.62
2019-04-03T08:12:27.789Z,17.77
2019-04-03T08:14:56.716Z,17.57
2019-04-03T08:17:31.984Z,16.87
2019-04-03T08:20:00.456Z,16.50
2019-04-03T08:22:28.915Z,17.25
2019-04-03T08:24:57.778Z,16.25
2019-04-03T08:27:26.547Z,14.40
2019-04-03T08:29:54.982Z,16.40
2019-04-03T08:32:23.746Z,16.40
2019-04-03T08:34:52.162Z,16.95
2019-04-03T08:37:29.619Z,14.93
2019-04-03T08:39:52.098Z,16.05
2019-04-03T08:42:20.772Z,15.70
2019-04-03T08:44:49.518Z,16.73
2019-04-03T08:47:17.959Z,14.98
2019-04-03T08:49:46.483Z,13.75
2019-04-03T08:52:15.146Z,12.95
2019-04-03T08:54:43.555Z,13.55
2019-04-03T08:57:12.607Z,11.95
2019-04-03T08:59:41.564Z,11.00
2019-04-03T09:02:12.706Z,12.93
2019-04-03T09:04:40.054Z,11.75
2019-04-03T09:07:08.867Z,11.10
2019-04-03T09:09:37.565Z,9.35
2019-04-03T09:12:07.594Z,8.55
2019-04-03T09:14:36.076Z,7.20
2019-04-03T09:17:05.255Z,7.15
2019-04-03T09:19:33.738Z,9.13
2019-04-03T09:22:02.473Z,6.80
2019-04-03T09:24:30.946Z,5.97
2019-04-03T09:26:59.643Z,6.78
2019-04-03T09:29:28.389Z,5.97
2019-04-03T09:31:57.043Z,5.72
2019-04-03T09:34:28.623Z,5.80
2019-04-03T09:36:55.636Z,5.30
2019-04-03T09:39:24.211Z,5.33
2019-04-03T09:41:52.931Z,4.78
2019-04-03T09:44:24.523Z,6.03
2019-04-03T09:46:51.972Z,6.22
2019-04-03T09:49:20.989Z,7.45
2019-04-03T09:51:52.202Z,8.55
2019-04-03T09:54:20.045Z,7.80
2019-04-03T09:56:59.220Z,7.60
2019-04-03T09:59:22.163Z,8.40
2019-04-03T10:01:50.606Z,7.75
2019-04-03T10:04:21.315Z,7.45
2019-04-03T10:06:49.133Z,7.08
2019-04-03T10:09:17.691Z,7.58
2019-04-03T10:11:46.215Z,6.75
2019-04-03T10:14:14.625Z,7.15
2019-04-03T10:16:43.087Z,7.00
2019-04-03T10:19:13.541Z,6.60
2019-04-03T10:21:42.068Z,5.87
2019-04-03T10:24:10.466Z,5.12
2019-04-03T10:26:40.584Z,6.17
2019-04-03T10:29:09.191Z,5.97
2019-04-03T10:31:37.650Z,5.08
2019-04-03T10:34:06.100Z,4.40
2019-04-03T10:36:35.261Z,4.65
2019-04-03T10:39:05.845Z,4.10
2019-04-03T10:41:34.798Z,4.22
2019-04-03T10:44:03.410Z,4.03
2019-04-03T10:46:32.400Z,3.92
2019-04-03T10:49:01.279Z,4.47
2019-04-03T10:51:31.423Z,4.70
2019-04-03T10:53:59.783Z,4.80
2019-04-03T10:56:29.331Z,4.70
2019-04-03T10:59:09.520Z,4.60
2019-04-03T11:01:29.385Z,4.83
2019-04-03T11:03:58.175Z,4.22
2019-04-03T11:06:26.915Z,4.50
2019-04-03T11:08:55.881Z,4.17
2019-04-03T11:11:24.334Z,4.15
2019-04-03T11:13:53.046Z,4.67
2019-04-03T11:16:21.630Z,5.15
2019-04-03T11:18:58.500Z,4.90
2019-04-03T11:21:20.270Z,7.90
2019-04-03T11:23:49.121Z,6.08
2019-04-03T11:26:19.080Z,5.97
2019-04-03T11:28:48.260Z,5.45
2019-04-03T11:31:25.357Z,6.10
2019-04-03T11:33:50.250Z,6.15
2019-04-03T11:36:17.646Z,5.75
2019-04-03T11:38:46.420Z,5.97
2019-04-03T11:41:18.791Z,6.08
2019-04-03T11:43:46.363Z,6.05
2019-04-03T11:46:15.745Z,6.42
2019-04-03T11:48:44.186Z,5.90
2019-04-03T11:51:13.141Z,7.37
2019-04-03T11:53:41.591Z,7.08
2019-04-03T11:56:10.937Z,7.58
2019-04-03T11:58:40.476Z,8.23
2019-04-03T12:01:09.787Z,8.33
2019-04-03T12:03:38.224Z,8.05
2019-04-03T12:06:06.978Z,8.78
2019-04-03T12:08:35.501Z,9.15
2019-04-03T12:11:06.107Z,9.88
2019-04-03T12:13:35.051Z,9.45
2019-04-03T12:16:04.092Z,10.10
2019-04-03T12:18:34.135Z,9.95
2019-04-03T12:21:03.057Z,10.32
2019-04-03T12:23:31.623Z,10.58
2019-04-03T12:26:00.236Z,9.35
2019-04-03T12:28:29.493Z,9.43
2019-04-03T12:30:58.218Z,10.25
2019-04-03T12:33:27.556Z,9.53
2019-04-03T12:35:56.467Z,9.90
2019-04-03T12:38:25.596Z,10.72
2019-04-03T12:40:54.719Z,10.63
2019-04-03T12:43:23.142Z,9.08
2019-04-03T12:45:51.572Z,8.85
2019-04-03T12:48:19.986Z,9.20
2019-04-03T12:50:48.501Z,8.25
2019-04-03T12:53:17.313Z,9.98
2019-04-03T12:55:46.003Z,8.63
2019-04-03T12:58:14.611Z,8.83
2019-04-03T13:00:43.530Z,9.38
2019-04-03T13:03:13.739Z,10.45
2019-04-03T13:05:42.748Z,8.78
2019-04-03T13:08:11.202Z,8.68
2019-04-03T13:10:42.853Z,8.38
2019-04-03T13:13:10.094Z,7.87
2019-04-03T13:15:38.625Z,7.75
2019-04-03T13:18:07.046Z,8.43
2019-04-03T13:20:37.464Z,8.15
2019-04-03T13:23:07.305Z,8.30
2019-04-03T13:25:35.695Z,8.98
2019-04-03T13:28:04.916Z,7.97
2019-04-03T13:30:33.576Z,8.30
2019-04-03T13:33:05.750Z,8.68
2019-04-03T13:35:33.471Z,8.95
2019-04-03T13:38:02.696Z,9.15
2019-04-03T13:40:31.145Z,8.03
2019-04-03T13:42:59.882Z,10.05
2019-04-03T13:45:30.666Z,9.10
2019-04-03T13:47:58.779Z,9.88
2019-04-03T13:50:27.229Z,10.13
2019-04-03T13:52:55.832Z,9.88
2019-04-03T13:55:24.392Z,10.28
2019-04-03T13:57:53.035Z,10.00
2019-04-03T14:00:23.489Z,10.18
2019-04-03T14:02:51.611Z,9.45
2019-04-03T14:05:20.087Z,11.08
2019-04-03T14:07:49.317Z,10.32
2019-04-03T14:10:19.274Z,9.88
2019-04-03T14:12:47.712Z,10.70
2019-04-03T14:15:19.257Z,9.63
2019-04-03T14:17:55.242Z,10.00
2019-04-03T14:20:17.640Z,10.18
2019-04-03T14:22:46.531Z,10.53
2019-04-03T14:25:20.520Z,10.58
2019-04-03T14:27:48.870Z,10.15
2019-04-03T14:30:17.768Z,10.28
2019-04-03T14:32:46.509Z,10.75
2019-04-03T14:35:41.951Z,11.65
2019-04-03T14:37:45.086Z,10.78
2019-04-03T14:40:13.631Z,12.55
2019-04-03T14:42:42.127Z,12.03
2019-04-03T14:45:13.376Z,11.60
2019-04-03T14:47:41.945Z,12.82
2019-04-03T14:50:10.375Z,12.07
2019-04-03T14:52:38.822Z,13.05
2019-04-03T14:55:18.567Z,13.83
2019-04-03T14:57:38.172Z,13.22
2019-04-03T15:00:23.488Z,13.62
2019-04-03T15:02:40.270Z,13.60
2019-04-03T15:05:09.413Z,13.85
2019-04-03T15:07:37.885Z,13.48
2019-04-03T15:10:09.542Z,13.70
2019-04-03T15:12:39.842Z,13.95
2019-04-03T15:15:09.107Z,14.18
2019-04-03T15:17:38.909Z,13.45
2019-04-03T15:20:09.547Z,14.13
2019-04-03T15:22:39.317Z,14.30
2019-04-03T15:25:08.643Z,13.80
2019-04-03T15:27:39.144Z,14.80
2019-04-03T15:30:09.978Z,14.60
2019-04-03T15:32:38.151Z,13.85
2019-04-03T15:35:06.759Z,14.58
2019-04-03T15:37:36.134Z,15.03
2019-04-03T15:40:05.758Z,13.20
2019-04-03T15:42:34.658Z,12.65
2019-04-03T15:45:03.267Z,14.80
2019-04-03T15:47:36.577Z,13.95
2019-04-03T15:50:02.196Z,13.28
2019-04-03T15:52:30.699Z,13.88
2019-04-03T15:55:00.062Z,13.70
2019-04-03T15:57:28.961Z,13.25
2019-04-03T15:59:57.953Z,13.45
2019-04-03T16:02:28.343Z,13.55
2019-04-03T16:04:58.470Z,13.28
2019-04-03T16:07:26.870Z,14.03
2019-04-03T16:09:55.734Z,13.25
2019-04-03T16:12:24.178Z,14.35
2019-04-03T16:14:53.078Z,14.03
2019-04-03T16:17:21.566Z,14.78
2019-04-03T16:19:52.347Z,15.23
2019-04-03T16:22:20.547Z,14.60
2019-04-03T16:24:49.274Z,14.43
2019-04-03T16:27:18.395Z,14.43
2019-04-03T16:29:46.992Z,15.32
2019-04-03T16:32:16.402Z,14.83
2019-04-03T16:34:45.265Z,13.32
2019-04-03T16:37:14.044Z,14.55
2019-04-03T16:39:42.631Z,13.98
2019-04-03T16:42:11.059Z,13.40
2019-04-03T16:44:39.900Z,15.38
2019-04-03T16:47:08.734Z,14.43
2019-04-03T16:49:37.189Z,14.87
2019-04-03T16:52:06.280Z,13.90
2019-04-03T16:54:34.724Z,13.70
2019-04-03T16:57:03.725Z,14.55
2019-04-03T16:59:35.341Z,14.63
2019-04-03T17:02:02.725Z,13.43
2019-04-03T17:04:34.539Z,13.55
2019-04-03T17:07:01.810Z,14.55
2019-04-03T17:09:32.646Z,15.28
2019-04-03T17:12:00.782Z,14.13
2019-04-03T17:14:29.185Z,14.43
2019-04-03T17:16:58.491Z,13.55
2019-04-03T17:19:27.046Z,14.35
2019-04-03T17:21:55.467Z,13.45
2019-04-03T17:24:23.926Z,13.35
2019-04-03T17:26:57.590Z,14.05
2019-04-03T17:29:22.525Z,12.53
2019-04-03T17:31:51.783Z,13.85
2019-04-03T17:34:20.522Z,13.48
2019-04-03T17:36:50.063Z,13.43
2019-04-03T17:39:19.103Z,13.50
2019-04-03T17:41:47.560Z,13.00
2019-04-03T17:44:16.400Z,13.50
2019-04-03T17:46:44.968Z,13.22
2019-04-03T17:49:13.386Z,13.72
2019-04-03T17:51:41.816Z,13.70
2019-04-03T17:54:10.279Z,13.60
2019-04-03T17:56:42.693Z,13.18
2019-04-03T17:59:10.051Z,13.98
2019-04-03T18:01:38.532Z,13.65
2019-04-03T18:04:07.222Z,13.88
2019-04-03T18:06:35.934Z,13.48
2019-04-03T18:09:07.673Z,12.45
2019-04-03T18:11:36.199Z,13.32
2019-04-03T18:14:05.120Z,12.88
2019-04-03T18:16:33.598Z,13.15
2019-04-03T18:19:04.510Z,14.10
2019-04-03T18:21:32.498Z,13.83
2019-04-03T18:24:01.133Z,13.28
2019-04-03T18:26:30.631Z,13.05
2019-04-03T18:28:59.588Z,13.70
2019-04-03T18:31:28.347Z,13.68
2019-04-03T18:33:57.089Z,13.03
2019-04-03T18:36:27.327Z,12.60
2019-04-03T18:38:55.640Z,13.95
2019-04-03T18:41:24.127Z,13.80
2019-04-03T18:43:54.209Z,13.15
2019-04-03T18:46:31.999Z,13.58
2019-04-03T18:48:54.759Z,15.00
2019-04-03T18:51:23.375Z,13.40
2019-04-03T18:53:51.846Z,12.40
2019-04-03T18:56:20.371Z,12.88
2019-04-03T18:58:48.820Z,13.03
2019-04-03T19:01:17.556Z,12.68
2019-04-03T19:03:46.344Z,12.07
2019-04-03T19:06:14.751Z,12.50
2019-04-03T19:08:43.208Z,10.63
2019-04-03T19:11:11.736Z,12.40
2019-04-03T19:13:40.371Z,12.43
2019-04-03T19:16:09.192Z,12.37
2019-04-03T19:18:38.012Z,11.57
2019-04-03T19:21:07.048Z,11.78
2019-04-03T19:23:35.486Z,12.18
2019-04-03T19:26:03.895Z,11.88
2019-04-03T19:28:34.286Z,12.20
2019-04-03T19:31:03.131Z,12.65
2019-04-03T19:33:31.935Z,12.70
2019-04-03T19:36:00.367Z,13.85
2019-04-03T19:38:28.751Z,13.28
2019-04-03T19:40:57.674Z,13.45
2019-04-03T19:43:26.482Z,13.78
2019-04-03T19:45:54.994Z,13.08
2019-04-03T19:48:23.858Z,13.55
2019-04-03T19:50:53.854Z,13.18
2019-04-03T19:53:22.281Z,13.60
2019-04-03T19:55:50.979Z,13.50
2019-04-03T19:58:19.411Z,13.83
2019-04-03T20:00:48.711Z,14.15
2019-04-03T20:03:17.399Z,14.15
2019-04-03T20:05:45.815Z,13.13
2019-04-03T20:08:14.273Z,13.48
2019-04-03T20:10:42.696Z,13.35
2019-04-03T20:13:11.210Z,13.45
2019-04-03T20:15:39.674Z,13.28
2019-04-03T20:18:08.087Z,14.07
2019-04-03T20:20:36.871Z,13.98
2019-04-03T20:23:05.786Z,15.48
2019-04-03T20:25:34.949Z,12.93
2019-04-03T20:28:03.759Z,13.78
2019-04-03T20:30:32.889Z,13.62
2019-04-03T20:33:01.860Z,13.70
2019-04-03T20:35:30.328Z,13.88
2019-04-03T20:37:58.782Z,13.45
2019-04-03T20:40:27.266Z,14.73
2019-04-03T20:42:56.102Z,14.03
2019-04-03T20:45:24.589Z,14.07
2019-04-03T20:47:53.102Z,14.13
2019-04-03T20:50:21.547Z,16.30
2019-04-03T20:52:50.000Z,15.30
2019-04-03T20:55:18.555Z,15.30
2019-04-03T20:57:55.290Z,15.45
2019-04-03T21:00:18.510Z,15.98
2019-04-03T21:02:47.545Z,16.05
2019-04-03T21:05:18.106Z,14.70
2019-04-03T21:07:46.328Z,15.68
2019-04-03T21:10:14.970Z,16.32
2019-04-03T21:12:43.345Z,17.20
2019-04-03T21:15:14.252Z,15.40
2019-04-03T21:17:41.898Z,16.00
2019-04-03T21:20:10.336Z,14.98
2019-04-03T21:22:38.743Z,15.95
2019-04-03T21:25:08.818Z,15.98
2019-04-03T21:27:39.633Z,16.12
2019-04-03T21:30:09.375Z,17.80
2019-04-03T21:32:38.102Z,16.85
2019-04-03T21:35:06.547Z,17.90
2019-04-03T21:37:35.010Z,17.82
2019-04-03T21:40:05.046Z,16.70
2019-04-03T21:42:33.808Z,16.75
2019-04-03T21:45:02.982Z,16.60
2019-04-03T21:47:32.454Z,17.02
2019-04-03T21:50:03.473Z,18.65
2019-04-03T21:52:30.943Z,17.10
2019-04-03T21:54:59.360Z,18.87
2019-04-03T21:57:27.805Z,18.10
2019-04-03T21:59:56.507Z,19.20
2019-04-03T22:02:24.942Z,16.80
2019-04-03T22:04:53.972Z,18.37
2019-04-03T22:07:23.020Z,18.92
2019-04-03T22:09:51.777Z,19.65
2019-04-03T22:12:20.576Z,17.25
2019-04-03T22:14:48.979Z,18.75
2019-04-03T22:17:17.449Z,18.42
2019-04-03T22:19:45.924Z,18.12
2019-04-03T22:22:14.362Z,19.23
2019-04-03T22:24:42.815Z,17.50
2019-04-03T22:27:12.107Z,20.37
2019-04-03T22:29:40.897Z,18.23
2019-04-03T22:32:09.295Z,18.45
2019-04-03T22:34:37.766Z,18.10
2019-04-03T22:37:06.201Z,18.37
2019-04-03T22:39:34.750Z,18.82
2019-04-03T22:42:03.159Z,18.17
2019-04-03T22:44:32.015Z,19.05
2019-04-03T22:47:00.871Z,18.48
2019-04-03T22:49:29.594Z,17.92
2019-04-03T22:51:57.999Z,19.35
2019-04-03T22:54:26.910Z,18.77
2019-04-03T22:56:55.319Z,18.75
2019-04-03T22:59:24.467Z,19.17
2019-04-03T23:01:53.027Z,18.60
2019-04-03T23:04:21.586Z,19.17
2019-04-03T23:06:50.223Z,18.00
2019-04-03T23:09:19.130Z,19.95
2019-04-03T23:11:47.945Z,19.77
2019-04-03T23:14:16.763Z,19.17
2019-04-03T23:16:45.297Z,17.57
2019-04-03T23:19:13.771Z,18.25
2019-04-03T23:21:42.202Z,19.62
2019-04-03T23:24:10.622Z,18.10
2019-04-03T23:26:39.084Z,18.55
2019-04-03T23:29:07.852Z,18.82
2019-04-03T23:31:36.644Z,19.25
2019-04-03T23:34:05.425Z,20.72
2019-04-03T23:36:33.908Z,19.40
2019-04-03T23:39:02.410Z,20.15
2019-04-03T23:41:30.882Z,18.37
2019-04-03T23:43:59.808Z,18.45
2019-04-03T23:46:28.796Z,20.08
2019-04-03T23:48:57.263Z,17.57
2019-04-03T23:51:27.910Z,18.70
2019-04-03T23:53:55.763Z,18.50
2019-04-03T23:56:24.206Z,18.85
2019-04-03T23:58:52.618Z,17.77
